AirNav   Pilot Hours Calculator
 
 906 users online  

2R0 Waynesboro Municipal Airport
Waynesboro, Mississippi, USA

GOING TO WAYNESBORO?


FAA INFORMATION EFFECTIVE 05 NOVEMBER 2020

Location

FAA Identifier: 2R0
Lat/Long: 31-38-36.7940N 088-38-06.3420W
31-38.613233N 088-38.105700W
31.6435539,-88.6350950
(estimated)
Elevation: 168.5 ft. / 51 m (estimated)
Variation: 02E (1985)
From city: 2 miles S of WAYNESBORO, MS
Time zone: UTC -6 (UTC -5 during Daylight Saving Time)
Zip code: 39367

Airport Operations

Airport use: Open to the public
Activation date: 09/1964
Control tower: no
ARTCC: MEMPHIS CENTER
FSS: GREENWOOD FLIGHT SERVICE STATION
NOTAMs facility: GWO (NOTAM-D service available)
Attendance: M-F 0600-1400
AFT HRS SVC CTC AMGR; (401) 404-8959.
Wind indicator: lighted
Segmented circle: yes
Lights: ACTVT PAPI RWY 02 & 20; MIRL RWY 02/20 - CTAF.
Beacon: white-green (lighted land airport)
Operates sunset to sunrise.

Airport Communications

CTAF/UNICOM: 122.8

Nearby radio navigation aids

VOR radial/distance  VOR name  Freq  Var
GCVr342/33.6GREENE COUNTY VORTAC115.7005E
LBYr064/38.4EATON VORTAC110.6005E

Airport Services

Fuel available: 100LL
24 HR CREDIT CARD SVC AVBL.
Parking: tiedowns
Bottled oxygen: NONE
Bulk oxygen: NONE

Runway Information

Runway 2/20

Dimensions: 5000 x 75 ft. / 1524 x 23 m
Surface: asphalt, in good condition
Weight bearing capacity: 
Single wheel: 15.0
Runway edge lights: medium intensity
RUNWAY 2  RUNWAY 20
Latitude: 31-38.231117N31-38.995350N
Longitude: 088-38.286817W088-37.924567W
Elevation: 167.0 ft.168.5 ft.
Traffic pattern: leftleft
Displaced threshold: no665 ft.
Markings: nonprecision, in good conditionnonprecision, in good condition
Visual slope indicator: 2-light PAPI on left2-light PAPI on left
Touchdown point: yes, no lightsyes, no lights
Obstructions: 73 ft. trees, 1700 ft. from runway, 100 ft. right of centerline, 20:1 slope to clear23 ft. rr, 600 ft. from runway, 17:1 slope to clear
APCH RATIO 50+:1 TO DSPLCD THLD.

Airport Ownership and Management from official FAA records

Ownership: Publicly-owned
Owner: CITY OF WAYNESBORO
714 WAYNE ST.
WAYNESBORO, MS 39367
Phone 601-735-4874
Manager: RANDY PITTS
714 WAYNE STREET
WAYNESBORO, MS 39367
Phone 601-735-9682

Airport Operational Statistics

Aircraft based on the field: 10
Single engine airplanes: 8
Multi engine airplanes: 2
    
Aircraft operations: avg 44/week *
51% local general aviation
43% transient general aviation
7% military
* for 12-month period ending 05 June 2020

Additional Remarks

FOR CD CTC MEMPHIS ARTCC AT 901-368-8453.
WILDLIFE NR RWY 20.

Instrument Procedures

There are no published instrument procedures at 2R0.

Some nearby airports with instrument procedures:

5R1 - Roy Wilcox Airport (25 nm SE)
KLUL - Hesler-Noble Field Airport (28 nm W)
KPIB - Hattiesburg-Laurel Regional Airport (37 nm W)
09A - Butler-Choctaw County Airport (39 nm NE)
KHBG - Hattiesburg Bobby L Chain Municipal Airport (39 nm SW)
 
Loc | Ops | Rwys | IFR | FBO | Links
Com | Nav | Svcs | Stats | Notes

Continental Services
AirBoss

 
Area around 2R0 (Waynesboro Municipal Airport)
 
Road maps at: MapQuest Bing Google
 
Aerial photo
WARNING: Photo may not be current or correct
Aerial photo of 2R0 (Waynesboro Municipal Airport)
Do you have a better or more recent aerial photo of Waynesboro Municipal Airport that you would like to share? If so, please send us your photo.

 
Sectional chart

 
Airport distance calculator
Flying to Waynesboro Municipal Airport? Find the distance to fly.

From to 2R0

Sunrise and sunset
Times for 29-Nov-2020
 Local
(UTC-6)
 Zulu
(UTC)
Morning civil twilight06:1012:10
Sunrise06:3712:37
Sunset16:5022:50
Evening civil twilight17:1623:16

Current date and time
Zulu (UTC)  30-Nov-2020 03:22:10
Local (UTC-6)  29-Nov-2020 21:22:10
 
METAR
KPIB 
36nm W 
300256Z AUTO 32005G16KT 10SM BKN011 OVC021 10/09 A2993 RMK AO2 RAB0157E41 SLP135 P0000 60001 T01000094 53021
KLUL 
37nm W 
300255Z AUTO 29010KT 7SM RA OVC010 10/09 A2990 RMK A02 T01030087 60002
KHBG 
39nm SW 
300253Z AUTO 30014G20KT 10SM OVC014 11/09 A2992 RMK AO2 RAB26E49 SLP131 P0000 60001 T01110094 53023
KMEI 
42nm N 
300258Z 34013G20KT 10SM -RA BKN008 BKN011 OVC016 10/08 A2988 RMK AO2 PK WND 31026/0241 SLP116 P0002 60014 T01000078 53030
TAF
KPIB 
36nm W 
291749Z 2918/3018 36010KT 2SM RA BR OVC002 FM300200 32012G20KT P6SM SCT009 OVC015
KHBG 
39nm SW 
291749Z 2918/3018 04006KT 2SM RA BR OVC004 FM292300 32014G22KT 6SM -RA BR OVC007 FM300200 32014KT P6SM SCT009 OVC015
KMEI 
42nm N 
291805Z 2918/3018 03008KT 2SM RA BR OVC004 FM300100 32014G24KT 6SM -RA BR BKN009 OVC015 FM300400 32014G24KT P6SM OVC015
NOTAMs
Click for the latest NOTAMs
NOTAMs are issued by the DoD/FAA and will open in a separate window not controlled by AirNav.

 

 
 

FBO, Fuel Providers, and Aircraft Ground Support

  
 Business Name 
 
 Contact 
 
 Services / Description 
 
Fuel Prices
 
Comments
  
Waynesboro Municipal Airport 601-735-9682
no information available

If you are affiliated with Waynesboro Municipal Airport and would like to show here your services, contact info, web link, logo, and more, click here
100LL
SS $3.29 
 Updated 20-Nov-2020
 
   write
SS=Self service
Update Fuel Prices
 

Would you like to see your business listed on this page?

 If your business provides an interesting product or service to pilots, flight crews, aircraft, or users of the Waynesboro Municipal Airport, you should consider listing it here.  To start the listing process, click on the button below
 
Add a business
 

Other Pages about Waynesboro Municipal Airport

Update a link
 
Copyright © AirNav, LLC. All rights reserved. Privacy Policy  Contact